Latest Weather Observations for Warburton

IDW60801

Issued at 7:35 pm WST Sunday 23 November 2014 (issued every 30 minutes, with the page automatically refreshed every 10 minutes)

About weather observations | Map of weather stations | Latest weather observations for WA | Other Formats
Station Details ID: 013011 Name: WARBURTON AIRFIELD Lat: -26.13 Lon: 126.58 Height: 459.0 m
Data from the previous 72 hours. | See also: Recent months at Warburton
Date/Time
WST
Temp
°C
App
Temp
°C
Dew
Point
Rel
Hum
%
Delta-T
°C
Wind Press
QNH
hPa
Press
MSL
hPa
Rain
since 9 am
mm
Dir
 
Spd
km/h
Gust
km/h
Spd
kts
Gust
kts
23/07:30pm 35.9 28.7 0.9 11 18.0 SW 28 35 15 19 1010.2 - 0.0
23/07:00pm 35.7 29.6 0.7 11 17.9 WSW 22 30 12 16 1009.5 - 0.0
23/06:30pm 35.8 31.1 0.8 11 18.0 WSW 15 22 8 12 1009.3 - 0.0
23/06:00pm 36.4 31.6 2.4 12 18.0 W 17 22 9 12 1008.8 1005.8 0.0
23/05:30pm 37.0 32.4 1.7 11 18.5 W 15 22 8 12 1008.4 - 0.0
23/05:00pm 37.5 32.0 2.1 11 18.7 W 20 28 11 15 1008.1 - 0.0
23/04:30pm 37.8 32.0 2.3 11 18.9 WNW 22 30 12 16 1007.8 - 0.0
23/04:00pm 38.3 32.4 3.9 12 18.8 WNW 24 32 13 17 1007.7 - 0.0
23/03:30pm 38.8 32.0 3.1 11 19.3 W 28 37 15 20 1007.7 - 0.0
23/03:07pm 38.7 30.8 4.2 12 18.9 WNW 35 54 19 29 1007.9 - 0.0
23/03:00pm 39.0 30.1 3.2 11 19.4 WNW 39 56 21 30 1007.9 1004.9 0.0
23/02:50pm 38.9 31.3 3.1 11 19.4 NW 32 50 17 27 1007.8 - 0.0
23/02:30pm 38.7 33.2 4.2 12 18.9 NW 22 33 12 18 1008.0 - 0.0
23/02:00pm 38.0 31.7 3.7 12 18.6 W 26 50 14 27 1008.3 - 0.0
23/01:52pm 38.5 32.1 5.2 13 18.6 NW 28 50 15 27 1008.4 - 0.0
23/01:30pm 37.7 31.8 5.6 14 17.9 NW 26 37 14 20 1008.7 - 0.0
23/01:00pm 38.4 32.7 5.1 13 18.5 NW 24 33 13 18 1008.6 - 0.0
23/12:30pm 38.3 32.5 6.1 14 18.2 NW 26 41 14 22 1008.9 - 0.0
23/12:00pm 38.6 32.8 6.3 14 18.3 NNW 26 43 14 23 1009.2 1006.2 0.0
23/11:30am 39.0 33.3 6.7 14 18.4 NNW 26 35 14 19 1009.8 - 0.0
23/11:00am 37.5 31.6 7.4 16 17.2 NNW 28 39 15 21 1010.3 - 0.0
23/10:30am 38.1 31.9 7.9 16 17.5 NNW 30 46 16 25 1010.6 - 0.0
23/10:00am 36.8 31.4 7.8 17 16.7 NW 26 41 14 22 1011.0 - 0.0
23/09:30am 36.0 30.6 8.0 18 16.1 NW 26 37 14 20 1011.3 - 0.0
23/09:00am 35.8 30.4 7.8 18 16.0 NW 26 37 14 20 1011.2 1008.2 0.0
23/08:30am 35.4 30.8 8.3 19 15.6 WNW 22 32 12 17 1011.1 - 0.0
23/08:00am 33.8 28.3 9.1 22 14.3 NW 28 37 15 20 1011.1 - 0.0
23/07:30am 33.0 28.2 10.4 25 13.3 NW 26 35 14 19 1011.2 - 0.0
23/07:00am 32.2 27.4 10.3 26 12.8 NW 26 37 14 20 1010.9 - 0.0
23/06:30am 30.5 26.7 9.9 28 11.9 NNW 20 28 11 15 1010.7 - 0.0
23/06:00am 29.2 25.8 9.3 29 11.3 NNW 17 24 9 13 1010.4 1007.4 0.0
23/05:30am 27.2 23.6 6.6 27 11.1 N 15 24 8 13 1010.2 - 0.0
23/05:00am 25.4 22.4 4.0 25 10.9 NNE 9 11 5 6 1009.4 - 0.0
23/04:30am 26.5 23.3 3.1 22 11.8 NW 9 13 5 7 1009.0 - 0.0
23/04:00am 25.9 24.1 5.5 27 10.7 NW 4 7 2 4 1008.7 - 0.0
23/03:30am 26.8 24.3 4.6 24 11.5 NW 7 9 4 5 1008.6 - 0.0
23/03:00am 26.8 24.4 5.1 25 11.4 NNW 7 9 4 5 1008.5 1005.5 0.0
23/02:30am 26.8 24.1 5.7 26 11.1 NW 9 11 5 6 1008.5 - 0.0
23/02:00am 26.8 24.6 6.2 27 11.0 WNW 7 9 4 5 1008.3 - 0.0
23/01:30am 27.8 24.9 4.8 23 12.0 NW 9 9 5 5 1008.4 - 0.0
23/01:00am 28.8 26.5 5.6 23 12.4 SW 7 9 4 5 1008.7 - 0.0
23/12:30am 29.8 27.0 5.1 21 13.1 SW 9 11 5 6 1008.9 - 0.0
23/12:00am 30.8 28.8 2.1 16 14.6 SSW 2 6 1 3 1009.1 1006.1 0.0
 
Date/Time
WST
Temp
°C
App
Temp
°C
Dew
Point
Rel
Hum
%
Delta-T
°C
Wind Press
QNH
hPa
Press
MSL
hPa
Rain
since 9 am
mm
Dir
 
Spd
km/h
Gust
km/h
Spd
kts
Gust
kts
22/11:30pm 31.2 27.7 1.5 15 15.0 NE 9 11 5 6 1009.4 - 0.0
22/11:00pm 32.5 28.7 -0.5 12 16.2 S 9 13 5 7 1009.4 - 0.0
22/10:30pm 30.3 27.6 5.6 21 13.3 NE 9 15 5 8 1009.6 - 0.0
22/10:00pm 30.8 28.1 2.9 17 14.4 S 6 7 3 4 1009.4 - 0.0
22/09:30pm 32.0 28.8 3.1 16 15.0 SSW 9 11 5 6 1009.3 - 0.0
22/09:00pm 33.2 29.5 2.1 14 16.1 SW 11 17 6 9 1009.2 1006.2 0.0
22/08:30pm 33.6 29.5 2.4 14 16.2 WSW 13 15 7 8 1008.9 - 0.0
22/08:00pm 34.0 30.8 2.8 14 16.4 WSW 9 13 5 7 1008.6 - 0.0
22/07:30pm 35.4 31.8 2.8 13 17.2 WSW 11 15 6 8 1008.3 - 0.0
22/07:00pm 36.3 32.6 2.4 12 17.9 WSW 11 17 6 9 1007.8 - 0.0
22/06:30pm 37.2 32.8 0.5 10 18.9 W 13 20 7 11 1007.2 - 0.0
22/06:00pm 38.6 32.8 0.1 9 19.9 W 20 32 11 17 1006.9 1003.9 0.0
22/05:30pm 39.6 33.6 0.9 9 20.3 W 22 30 12 16 1006.4 - 0.0
22/05:00pm 40.5 33.9 -0.1 8 21.1 W 24 39 13 21 1006.2 - 0.0
22/04:30pm 40.7 33.0 0.0 8 21.2 WNW 30 43 16 23 1006.0 - 0.0
22/04:00pm 39.9 32.9 -0.5 8 20.8 W 26 43 14 23 1006.1 - 0.0
22/03:44pm 41.3 34.1 0.5 8 21.5 W 28 46 15 25 1006.1 - 0.0
22/03:30pm 41.3 35.6 0.5 8 21.5 W 20 35 11 19 1006.1 - 0.0
22/03:00pm 41.7 36.0 0.8 8 21.7 WNW 20 33 11 18 1006.4 1003.4 0.0
22/02:30pm 41.4 33.2 0.5 8 21.6 WNW 33 39 18 21 1006.9 - 0.0
22/02:00pm 41.4 34.6 0.5 8 21.6 WNW 26 44 14 24 1007.3 - 0.0
22/01:30pm 41.2 34.0 0.4 8 21.5 WNW 28 43 15 23 1007.8 - 0.0
22/01:00pm 40.8 36.4 0.1 8 21.3 W 13 35 7 19 1008.1 - 0.0
22/12:37pm 41.6 34.1 -1.1 7 22.0 NW 28 46 15 25 1008.4 - 0.0
22/12:30pm 40.7 34.5 0.0 8 21.2 NW 22 33 12 18 1008.5 - 0.0
22/12:00pm 40.7 34.9 0.0 8 21.3 NNW 20 35 11 19 1008.9 1005.9 0.0
22/11:30am 39.7 32.7 -0.7 8 20.7 WNW 26 37 14 20 1009.4 - 0.0
22/11:00am 38.9 34.3 -1.3 8 20.3 N 13 24 7 13 1009.7 - 0.0
22/10:30am 38.7 32.3 -1.4 8 20.2 WNW 22 33 12 18 1010.2 - 0.0
22/10:00am 38.5 34.6 -1.6 8 20.1 NNW 9 17 5 9 1010.5 - 0.0
22/09:30am 37.0 33.2 -1.1 9 19.1 W 9 19 5 10 1010.8 - 0.0
22/09:00am 36.1 32.2 1.0 11 18.1 NNE 11 19 6 10 1010.9 1007.9 0.0
22/08:30am 35.5 32.1 3.9 14 17.0 NE 11 17 6 9 1011.0 - 0.0
22/08:00am 33.7 29.8 5.3 17 15.5 NE 15 20 8 11 1011.0 - 0.0
22/07:30am 32.2 29.3 6.4 20 14.2 NE 11 17 6 9 1010.8 - 0.0
22/07:00am 31.1 27.4 6.2 21 13.6 E 15 20 8 11 1010.7 - 0.0
22/06:30am 29.0 26.6 7.0 25 12.0 E 9 13 5 7 1010.5 - 0.0
22/06:00am 25.1 24.1 10.9 41 8.1 N 7 13 4 7 1010.1 1007.1 0.0
22/05:30am 23.1 24.5 14.4 58 5.2 CALM 0 7 0 4 1009.3 - 0.0
22/05:00am 20.1 21.8 15.3 74 2.9 CALM 0 0 0 0 1008.9 - 0.0
22/04:30am 20.0 21.8 15.4 75 2.8 CALM 0 0 0 0 1008.6 - 0.0
22/04:00am 20.2 21.9 15.2 73 3.0 CALM 0 0 0 0 1008.1 - 0.0
22/03:30am 20.4 22.0 15.0 71 3.2 CALM 0 0 0 0 1008.0 - 0.0
22/03:00am 21.0 22.5 14.6 67 3.8 CALM 0 0 0 0 1008.0 1005.0 0.0
22/02:30am 21.3 22.7 14.5 65 4.1 CALM 0 0 0 0 1007.8 - 0.0
22/02:00am 21.4 22.8 14.3 64 4.2 CALM 0 0 0 0 1007.7 - 0.0
22/01:30am 21.7 23.4 15.1 66 4.0 CALM 0 0 0 0 1007.8 - 0.0
22/01:00am 22.4 23.7 14.0 59 5.0 CALM 0 0 0 0 1008.1 - 0.0
22/12:30am 23.9 24.3 13.7 53 6.1 W 4 7 2 4 1008.2 - 0.0
22/12:00am 24.7 25.6 13.0 48 6.9 CALM 0 6 0 3 1008.1 1005.1 0.0
 
Date/Time
WST
Temp
°C
App
Temp
°C
Dew
Point
Rel
Hum
%
Delta-T
°C
Wind Press
QNH
hPa
Press
MSL
hPa
Rain
since 9 am
mm
Dir
 
Spd
km/h
Gust
km/h
Spd
kts
Gust
kts
21/11:30pm 23.9 23.6 14.3 55 5.8 NNE 9 9 5 5 1008.3 - 0.0
21/11:00pm 24.9 24.4 12.8 47 7.1 NNE 7 9 4 5 1008.6 - 0.0
21/10:30pm 25.9 25.3 12.4 43 7.9 N 7 7 4 4 1008.8 - 0.0
21/10:00pm 26.5 26.4 12.2 41 8.4 NNW 4 7 2 4 1009.0 - 0.0
21/09:30pm 27.6 28.5 12.8 40 8.8 CALM 0 6 0 3 1008.9 - 0.0
21/09:00pm 28.0 26.9 10.7 34 10.0 N 7 9 4 5 1008.6 1005.6 0.0
21/08:30pm 29.6 28.1 8.6 27 11.8 N 6 7 3 4 1008.5 - 0.0
21/08:00pm 31.4 29.5 5.0 19 14.1 WNW 4 7 2 4 1008.3 - 0.0
21/07:30pm 33.2 30.6 4.0 16 15.5 WNW 7 9 4 5 1008.0 - 0.0
21/07:00pm 34.4 31.0 2.0 13 16.8 WNW 9 11 5 6 1007.7 - 0.0
21/06:30pm 35.8 32.2 0.8 11 18.0 WNW 9 13 5 7 1007.3 - 0.0
21/06:00pm 38.3 32.9 -1.7 8 20.1 WNW 17 24 9 13 1007.0 1004.0 0.0
21/05:30pm 39.4 33.5 -0.9 8 20.6 WNW 20 30 11 16 1006.8 - 0.0
21/05:00pm 40.1 33.9 -0.4 8 20.9 WNW 22 32 12 17 1006.5 - 0.0
21/04:30pm 40.1 33.9 -0.4 8 20.9 NW 22 33 12 18 1006.5 - 0.0
21/04:00pm 40.5 34.7 -0.1 8 21.1 WNW 20 32 11 17 1006.6 - 0.0
21/03:30pm 40.9 33.6 0.2 8 21.3 W 28 43 15 23 1006.6 - 0.0
21/03:00pm 40.6 33.3 0.0 8 21.2 W 28 41 15 22 1006.9 1003.9 0.0
21/02:30pm 40.8 34.3 0.1 8 21.3 W 24 35 13 19 1007.3 - 0.0
21/02:00pm 40.6 32.7 -1.9 7 21.5 W 30 41 16 22 1007.8 - 0.0
21/01:52pm 40.8 33.3 -1.7 7 21.6 WNW 28 50 15 27 1007.9 - 0.0
21/01:30pm 40.7 33.8 0.0 8 21.2 WNW 26 37 14 20 1008.1 - 0.0
21/01:15pm 40.4 33.1 -0.2 8 21.1 W 28 46 15 25 1008.3 - 0.0
21/01:00pm 39.5 32.7 0.8 9 20.3 WNW 26 46 14 25 1008.6 - 0.0
21/12:52pm 40.1 33.0 1.2 9 20.6 W 28 46 15 25 1008.7 - 0.0
21/12:30pm 39.6 32.8 0.9 9 20.3 WNW 26 41 14 22 1009.1 - 0.0
21/12:00pm 39.8 34.3 3.8 11 19.8 W 22 41 12 22 1009.3 1006.3 0.0
21/11:30am 38.4 33.3 4.0 12 18.8 WNW 20 35 11 19 1010.0 - 0.0
21/11:00am 38.0 33.0 3.7 12 18.6 W 19 28 10 15 1010.5 - 0.0
21/10:30am 38.2 32.8 2.6 11 19.0 W 20 28 11 15 1011.0 - 0.0
21/10:00am 37.0 31.9 2.9 12 18.2 WNW 19 28 10 15 1011.4 - 0.0
21/09:30am 35.8 32.8 4.2 14 17.1 NNW 9 24 5 13 1011.6 - 0.0
21/09:00am 34.6 32.9 8.4 20 15.1 WNW 7 15 4 8 1011.8 1008.9 0.0
21/08:30am 34.0 31.4 9.3 22 14.3 N 13 22 7 12 1012.0 - 0.0
21/08:00am 32.4 30.9 14.1 33 11.3 NE 15 22 8 12 1012.1 - 0.0
21/07:30am 30.7 29.4 14.8 38 9.9 NNE 15 19 8 10 1012.3 - 0.0
21/07:00am 29.4 28.5 14.8 41 9.0 NE 13 20 7 11 1012.1 - 0.0
21/06:30am 28.6 27.4 14.1 41 8.9 ENE 13 17 7 9 1011.9 - 0.0
21/06:00am 27.2 27.1 14.9 47 7.6 E 9 13 5 7 1011.7 1008.8 0.0
21/05:30am 25.5 24.5 14.6 51 6.6 E 13 19 7 10 1011.4 - 0.0
21/05:00am 24.0 23.4 14.7 56 5.6 E 11 15 6 8 1011.2 - 0.0
21/04:30am 23.8 22.8 14.5 56 5.6 E 13 19 7 10 1011.0 - 0.0
21/04:00am 23.9 22.5 14.6 56 5.6 E 15 20 8 11 1010.8 - 0.0
21/03:30am 22.1 22.6 15.5 66 4.0 ESE 7 13 4 7 1010.7 - 0.0
21/03:00am 21.8 22.3 15.6 68 3.8 E 7 9 4 5 1010.7 1007.7 0.0
21/02:30am 21.9 22.8 16.6 72 3.3 SSE 7 7 4 4 1010.8 - 0.0
21/02:00am 22.0 23.1 16.7 72 3.3 SE 6 9 3 5 1010.8 - 0.0
21/01:30am 22.4 23.3 16.7 70 3.5 SE 7 9 4 5 1011.0 - 0.0
21/01:00am 22.7 23.8 16.7 69 3.7 SE 6 7 3 4 1011.1 - 0.0
21/12:30am 23.0 24.1 16.5 67 4.0 SE 6 9 3 5 1011.5 - 0.0
21/12:00am 23.6 24.0 16.4 64 4.5 SSE 9 9 5 5 1011.5 1008.5 0.0
 
Date/Time
WST
Temp
°C
App
Temp
°C
Dew
Point
Rel
Hum
%
Delta-T
°C
Wind Press
QNH
hPa
Press
MSL
hPa
Rain
since 9 am
mm
Dir
 
Spd
km/h
Gust
km/h
Spd
kts
Gust
kts
20/11:30pm 24.1 24.8 16.1 61 5.0 SE 7 9 4 5 1011.7 - 0.0
20/11:00pm 24.4 24.8 15.3 57 5.6 SSE 7 9 4 5 1011.9 - 0.0
20/10:30pm 24.5 24.9 16.2 60 5.2 SE 9 11 5 6 1011.9 - 0.0
20/10:00pm 24.7 25.1 15.3 56 5.8 SSE 7 7 4 4 1011.8 - 0.0
20/09:30pm 25.8 25.8 13.6 47 7.3 SE 6 7 3 4 1011.7 - 0.0
20/09:00pm 27.1 26.1 12.3 39 8.8 SSE 9 9 5 5 1011.6 1008.6 0.0
20/08:30pm 27.9 26.4 11.9 37 9.4 SSE 11 13 6 7 1011.4 - 0.0
20/08:00pm 28.6 27.2 12.1 36 9.8 SSE 11 13 6 7 1011.1 - 0.0

Other Formats:

Comma delimited format used in spreadsheet applications
http://www.bom.gov.au/fwo/IDW60801/IDW60801.94457.axf

JavaScript Object Notation format (JSON) in row-major order
http://www.bom.gov.au/fwo/IDW60801/IDW60801.94457.json